Time;durP1;ratioP1;P1;durP2;ratioP2;P2;SDS_P1;SDS_P2;PMS_P1;PMS_P2;Temp;Humidity;BMP_temperature;BMP_pressure;BME280_temperature;BME280_humidity;BME280_pressure;Samples;Min_cycle;Max_cycle;Signal;HPM_P1;HPM_P2
2023/08/18 00:01:32;;;;;;;3.88;1.80;;;15.60;99.90;;;;;;5075032;28;20048;-26
2023/08/18 00:03:58;;;;;;;6.10;2.15;;;15.60;99.90;;;;;;5056846;28;20041;-26
2023/08/18 00:06:24;;;;;;;3.15;2.13;;;15.50;99.90;;;;;;5055974;28;20044;-27
2023/08/18 00:08:50;;;;;;;4.47;2.00;;;15.50;99.90;;;;;;5054570;28;20052;-26
2023/08/18 00:11:16;;;;;;;4.85;1.80;;;15.50;99.90;;;;;;5054564;28;20475;-26
2023/08/18 00:13:42;;;;;;;4.90;1.95;;;15.40;99.90;;;;;;5065838;28;20047;-26
2023/08/18 00:16:08;;;;;;;3.08;1.90;;;15.40;99.90;;;;;;5075755;28;20048;-26
2023/08/18 00:18:33;;;;;;;4.05;1.80;;;15.30;99.90;;;;;;5075378;28;20047;-26
2023/08/18 00:20:59;;;;;;;5.10;2.28;;;15.20;99.90;;;;;;5075671;28;20052;-26
2023/08/18 00:23:25;;;;;;;4.72;1.95;;;15.10;99.90;;;;;;5073442;28;20109;-26
2023/08/18 00:25:50;;;;;;;2.88;1.65;;;15.10;99.90;;;;;;5075428;28;20080;-26
2023/08/18 00:28:16;;;;;;;2.13;1.80;;;15.00;99.90;;;;;;5075521;28;20129;-27
2023/08/18 00:30:42;;;;;;;5.43;2.00;;;14.90;99.90;;;;;;5058395;28;20458;-26
2023/08/18 00:33:08;;;;;;;4.35;1.65;;;14.90;99.90;;;;;;5075683;28;20045;-26
2023/08/18 00:35:34;;;;;;;2.08;1.70;;;14.80;99.90;;;;;;5071154;28;20478;-26
2023/08/18 00:38:00;;;;;;;3.90;2.10;;;14.80;99.90;;;;;;5056091;28;20394;-26
2023/08/18 00:40:25;;;;;;;4.00;2.20;;;14.80;99.90;;;;;;5054934;28;20037;-26
2023/08/18 00:42:51;;;;;;;4.03;2.05;;;14.80;99.90;;;;;;5055562;28;20528;-26
2023/08/18 00:45:17;;;;;;;3.25;2.13;;;14.80;99.90;;;;;;5055204;28;20462;-26
2023/08/18 00:47:44;;;;;;;2.72;2.40;;;14.80;99.90;;;;;;5054882;28;20494;-26
2023/08/18 00:50:11;;;;;;;2.92;2.22;;;14.70;99.90;;;;;;5055648;28;20114;-26
2023/08/18 00:52:42;;;;;;;3.78;2.42;;;14.80;99.90;;;;;;5054138;28;20045;-25
2023/08/18 00:55:10;;;;;;;3.90;2.38;;;14.70;99.90;;;;;;5054969;28;20045;-26
2023/08/18 00:57:36;;;;;;;4.30;2.80;;;14.70;99.90;;;;;;5054964;28;20052;-26
2023/08/18 01:00:03;;;;;;;8.50;2.47;;;14.70;99.90;;;;;;5055223;28;20503;-26
2023/08/18 01:02:29;;;;;;;5.10;2.90;;;14.60;99.90;;;;;;5073714;28;20049;-26
2023/08/18 01:05:02;;;;;;;4.60;2.78;;;14.50;99.90;;;;;;5057571;28;20045;-26
2023/08/18 01:07:28;;;;;;;3.50;2.83;;;14.50;99.90;;;;;;5074729;28;20417;-26
2023/08/18 01:09:54;;;;;;;3.35;2.72;;;14.40;99.90;;;;;;5074617;28;20110;-26
2023/08/18 01:12:26;;;;;;;3.50;2.95;;;14.30;99.90;;;;;;5072219;28;20052;-24
2023/08/18 01:15:26;;;;;;;4.13;3.40;;;14.20;99.90;;;;;;5068671;28;20036;-26
2023/08/18 01:17:57;;;;;;;6.70;3.40;;;14.20;99.90;;;;;;5051920;28;20057;-26
2023/08/18 01:20:25;;;;;;;4.30;3.22;;;14.10;99.90;;;;;;5054952;28;20045;-26
2023/08/18 01:22:57;;;;;;;5.07;3.47;;;14.10;99.90;;;;;;5055018;28;20079;-26
2023/08/18 01:25:24;;;;;;;4.95;3.65;;;14.20;99.90;;;;;;5060960;28;20048;-26
2023/08/18 01:27:51;;;;;;;7.85;3.83;;;14.20;99.90;;;;;;5074621;28;20056;-26
2023/08/18 01:30:17;;;;;;;6.18;3.38;;;14.20;99.90;;;;;;5074222;28;20040;-26
2023/08/18 01:33:09;;;;;;;3.70;3.30;;;14.30;99.90;;;;;;5074527;28;20045;-26
2023/08/18 01:35:36;;;;;;;4.88;3.38;;;14.40;99.90;;;;;;5073897;28;20443;-26
2023/08/18 01:38:04;;;;;;;5.00;3.63;;;14.40;99.90;;;;;;5048283;28;20045;-26
2023/08/18 01:40:31;;;;;;;4.65;3.20;;;14.50;99.90;;;;;;5054756;28;20055;-26
2023/08/18 01:42:58;;;;;;;5.97;3.58;;;14.60;99.90;;;;;;5054127;28;20575;-26
2023/08/18 01:45:24;;;;;;;5.13;4.05;;;14.70;99.90;;;;;;5054110;28;20523;-26
2023/08/18 01:47:50;;;;;;;6.00;3.72;;;14.80;99.90;;;;;;5054044;28;20041;-26
2023/08/18 01:50:16;;;;;;;5.55;3.50;;;14.80;99.90;;;;;;5053722;28;20481;-26
2023/08/18 01:52:42;;;;;;;4.85;3.28;;;14.90;99.90;;;;;;5036113;28;20052;-26
2023/08/18 01:55:07;;;;;;;6.45;3.70;;;14.90;99.90;;;;;;5057046;28;20052;-26
2023/08/18 01:57:33;;;;;;;4.40;3.15;;;15.00;99.90;;;;;;5074723;28;20076;-26
2023/08/18 01:59:59;;;;;;;4.68;3.10;;;15.00;99.90;;;;;;5074004;28;20476;-26
2023/08/18 02:02:25;;;;;;;4.22;2.92;;;15.00;99.90;;;;;;5072382;28;20044;-27
2023/08/18 02:04:50;;;;;;;6.03;3.10;;;15.10;99.90;;;;;;5072606;28;20119;-26
2023/08/18 02:07:16;;;;;;;3.78;3.03;;;15.10;99.90;;;;;;5072612;28;20450;-27
2023/08/18 02:09:42;;;;;;;3.92;2.95;;;15.10;99.90;;;;;;5074010;28;20044;-26
2023/08/18 02:12:08;;;;;;;5.53;3.08;;;15.10;99.90;;;;;;5055456;28;20044;-26
2023/08/18 02:14:34;;;;;;;5.35;3.08;;;15.10;99.90;;;;;;5071239;28;20045;-26
2023/08/18 02:16:59;;;;;;;4.13;2.92;;;15.10;99.90;;;;;;5073671;28;20076;-26
2023/08/18 02:19:25;;;;;;;5.50;3.70;;;15.10;99.90;;;;;;5055960;28;20074;-26
2023/08/18 02:21:51;;;;;;;4.85;3.08;;;15.10;99.90;;;;;;5074168;28;20090;-26
2023/08/18 02:24:17;;;;;;;4.45;3.13;;;15.00;99.90;;;;;;5073918;28;20056;-26
2023/08/18 02:26:42;;;;;;;5.80;3.50;;;14.90;99.90;;;;;;5071622;28;20073;-26
2023/08/18 02:29:08;;;;;;;7.80;3.17;;;14.90;99.90;;;;;;5053852;28;20419;-26
2023/08/18 02:31:34;;;;;;;6.72;3.25;;;14.80;99.90;;;;;;5053479;28;20489;-26
2023/08/18 02:33:59;;;;;;;4.43;3.15;;;14.80;99.90;;;;;;5056463;28;20047;-26
2023/08/18 02:36:25;;;;;;;4.55;2.97;;;14.70;99.90;;;;;;5040545;28;20131;-26
2023/08/18 02:38:51;;;;;;;5.82;3.20;;;14.70;99.90;;;;;;5057961;28;20379;-24
2023/08/18 02:41:19;;;;;;;5.07;3.45;;;14.60;99.90;;;;;;5056436;28;20147;-26
2023/08/18 02:43:48;;;;;;;6.45;3.50;;;14.60;99.90;;;;;;5056536;28;20052;-26
2023/08/18 02:46:14;;;;;;;4.82;3.17;;;14.50;99.90;;;;;;5057499;28;20128;-26
2023/08/18 02:48:40;;;;;;;5.18;3.60;;;14.60;99.90;;;;;;5057403;28;20084;-26
2023/08/18 02:51:07;;;;;;;6.70;3.50;;;14.60;99.90;;;;;;5057248;28;20049;-27
2023/08/18 02:53:33;;;;;;;5.95;3.97;;;14.70;99.90;;;;;;5074999;28;20123;-26
2023/08/18 02:55:59;;;;;;;4.53;3.22;;;14.70;99.90;;;;;;5076585;28;20136;-26
2023/08/18 02:58:27;;;;;;;4.95;3.28;;;14.80;99.90;;;;;;5076982;28;20091;-26
2023/08/18 03:00:53;;;;;;;4.60;3.15;;;14.80;99.90;;;;;;5077775;28;20052;-26
2023/08/18 03:03:19;;;;;;;6.20;3.78;;;14.90;99.90;;;;;;5075992;28;20049;-26
2023/08/18 03:05:46;;;;;;;3.80;3.40;;;14.90;99.90;;;;;;5058568;28;20562;-26
2023/08/18 03:08:12;;;;;;;4.88;3.40;;;14.90;99.90;;;;;;5056421;28;20085;-26
2023/08/18 03:10:38;;;;;;;5.97;3.67;;;15.00;99.90;;;;;;5056909;28;20041;-26
2023/08/18 03:13:04;;;;;;;4.78;3.55;;;15.00;99.90;;;;;;5056964;28;20542;-26
2023/08/18 03:15:30;;;;;;;6.57;4.07;;;15.00;99.90;;;;;;5057165;28;20045;-32
2023/08/18 03:17:57;;;;;;;4.03;3.22;;;15.10;99.90;;;;;;5069529;28;20044;-26
2023/08/18 03:20:22;;;;;;;5.15;3.72;;;15.10;99.90;;;;;;5077095;28;20052;-26
2023/08/18 03:22:48;;;;;;;9.52;4.30;;;15.20;99.90;;;;;;5077346;28;20052;-26
2023/08/18 03:25:14;;;;;;;7.93;4.30;;;15.20;99.90;;;;;;5075518;28;20052;-26
2023/08/18 03:27:41;;;;;;;8.27;4.38;;;15.20;99.90;;;;;;5076665;28;20174;-26
2023/08/18 03:30:07;;;;;;;5.30;4.00;;;15.30;99.90;;;;;;5073527;28;20041;-26
2023/08/18 03:32:33;;;;;;;6.68;4.45;;;15.30;99.90;;;;;;5075375;28;20216;-26
2023/08/18 03:34:59;;;;;;;6.75;4.18;;;15.30;99.90;;;;;;5075325;28;20482;-26
2023/08/18 03:37:24;;;;;;;8.38;4.28;;;15.30;99.90;;;;;;5076431;28;20051;-26
2023/08/18 03:39:54;;;;;;;5.80;4.30;;;15.40;99.90;;;;;;5075782;28;20550;-26
2023/08/18 03:42:21;;;;;;;7.15;4.85;;;15.40;99.90;;;;;;5066018;28;20566;-26
2023/08/18 03:44:47;;;;;;;4.75;4.07;;;15.50;99.90;;;;;;5060072;28;20056;-27
2023/08/18 03:47:12;;;;;;;7.90;4.65;;;15.50;99.90;;;;;;5075100;28;20044;-26
2023/08/18 03:49:38;;;;;;;5.72;4.43;;;15.40;99.90;;;;;;5075665;28;20044;-26
2023/08/18 03:52:04;;;;;;;6.32;4.57;;;15.50;99.90;;;;;;5076432;28;20421;-26
2023/08/18 03:54:30;;;;;;;8.10;4.25;;;15.60;99.90;;;;;;5070559;28;20040;-26
2023/08/18 03:56:56;;;;;;;7.35;5.20;;;15.50;99.90;;;;;;5056100;28;20127;-26
2023/08/18 03:59:21;;;;;;;8.57;4.60;;;15.60;99.90;;;;;;5054900;28;20102;-26
2023/08/18 04:01:47;;;;;;;7.47;5.05;;;15.60;99.90;;;;;;5054918;28;20047;-26
2023/08/18 04:04:13;;;;;;;6.38;4.90;;;15.70;99.90;;;;;;5056017;28;20118;-27
2023/08/18 04:06:38;;;;;;;7.40;4.85;;;15.60;99.90;;;;;;5055637;28;20091;-26
2023/08/18 04:09:09;;;;;;;8.35;5.10;;;15.60;99.90;;;;;;5055351;28;20048;-26
2023/08/18 04:11:35;;;;;;;8.75;5.35;;;15.70;99.90;;;;;;5055804;28;20041;-26
2023/08/18 04:14:02;;;;;;;6.00;4.88;;;15.70;99.90;;;;;;5055112;28;20395;-27
2023/08/18 04:16:31;;;;;;;13.50;5.72;;;15.80;99.90;;;;;;5055753;28;20085;-26
2023/08/18 04:18:57;;;;;;;7.88;6.03;;;15.80;99.90;;;;;;5058399;28;20045;-26
2023/08/18 04:21:23;;;;;;;12.40;6.45;;;15.80;99.90;;;;;;5076554;28;20122;-27
2023/08/18 04:23:49;;;;;;;7.93;5.10;;;15.80;99.90;;;;;;5075307;28;20401;-26
2023/08/18 04:26:15;;;;;;;9.57;5.68;;;15.80;99.90;;;;;;5074677;28;20045;-26
2023/08/18 04:28:41;;;;;;;7.82;5.03;;;15.80;99.90;;;;;;5075522;28;20060;-26
2023/08/18 04:31:06;;;;;;;7.57;5.63;;;15.80;99.90;;;;;;5073250;28;20047;-25
2023/08/18 04:33:32;;;;;;;9.10;4.68;;;15.80;99.90;;;;;;5075150;28;20132;-26
2023/08/18 04:35:58;;;;;;;8.40;5.22;;;15.80;99.90;;;;;;5075445;28;20056;-27
2023/08/18 04:38:24;;;;;;;12.90;5.88;;;15.80;99.90;;;;;;5075371;28;20122;-26
2023/08/18 04:41:00;;;;;;;8.95;5.20;;;15.90;99.90;;;;;;5074037;28;20049;-27
2023/08/18 04:43:27;;;;;;;9.32;5.43;;;15.90;99.90;;;;;;5055003;28;20049;-26
2023/08/18 04:45:53;;;;;;;11.23;5.10;;;15.90;99.90;;;;;;5055191;28;20053;-26
2023/08/18 04:48:23;;;;;;;6.95;5.65;;;15.90;99.90;;;;;;5055735;28;20045;-26
2023/08/18 04:50:49;;;;;;;9.23;5.38;;;16.00;99.90;;;;;;5054041;28;20056;-26
2023/08/18 04:53:16;;;;;;;8.43;5.47;;;16.00;99.90;;;;;;5054667;28;20048;-27
2023/08/18 04:55:43;;;;;;;10.23;5.47;;;16.00;99.90;;;;;;5053237;28;20052;-24
2023/08/18 04:58:12;;;;;;;7.15;5.25;;;16.00;99.90;;;;;;5054980;28;20048;-26
2023/08/18 05:00:44;;;;;;;6.13;4.88;;;16.00;99.90;;;;;;5037354;28;20483;-27
2023/08/18 05:03:11;;;;;;;9.10;5.57;;;16.10;99.90;;;;;;5054889;28;20053;-26
2023/08/18 05:06:02;;;;;;;8.98;4.68;;;16.10;99.90;;;;;;5054169;28;20045;-26
2023/08/18 05:08:28;;;;;;;8.18;5.63;;;16.10;99.90;;;;;;5055620;28;20512;-26
2023/08/18 05:11:07;;;;;;;8.13;5.43;;;16.10;99.90;;;;;;5054418;28;20099;-26
2023/08/18 05:13:35;;;;;;;11.23;5.55;;;16.20;99.90;;;;;;5053587;28;20044;-26
2023/08/18 05:16:01;;;;;;;8.40;5.47;;;16.20;99.90;;;;;;5054652;28;20095;-26
2023/08/18 05:18:30;;;;;;;7.10;5.50;;;16.20;99.90;;;;;;5054315;28;20053;-22
2023/08/18 05:20:56;;;;;;;8.52;5.32;;;16.20;99.90;;;;;;5055773;28;20048;-26
2023/08/18 05:23:22;;;;;;;10.30;5.85;;;16.30;99.90;;;;;;5054491;28;20044;-26
2023/08/18 05:25:48;;;;;;;9.90;6.15;;;16.30;99.90;;;;;;5054453;28;20123;-26
2023/08/18 05:28:15;;;;;;;9.60;5.50;;;16.30;99.90;;;;;;5036864;28;20521;-26
2023/08/18 05:30:45;;;;;;;9.32;5.22;;;16.40;99.90;;;;;;5053235;28;20048;-26
2023/08/18 05:33:11;;;;;;;8.18;5.55;;;16.40;99.90;;;;;;5053883;28;20084;-26
2023/08/18 05:35:37;;;;;;;8.50;4.80;;;16.40;99.90;;;;;;5037019;28;20057;-26
2023/08/18 05:38:07;;;;;;;9.27;5.60;;;16.50;99.90;;;;;;5052884;28;20055;-27
2023/08/18 05:40:33;;;;;;;8.43;5.32;;;16.50;99.90;;;;;;5037789;28;20487;-26
2023/08/18 05:42:58;;;;;;;7.72;5.80;;;16.60;99.90;;;;;;5036420;28;20068;-26
2023/08/18 05:45:25;;;;;;;7.75;5.25;;;16.60;99.90;;;;;;5068317;28;20127;-26
2023/08/18 05:47:52;;;;;;;19.85;5.45;;;16.60;99.90;;;;;;5054062;28;20044;-28
2023/08/18 05:50:18;;;;;;;9.88;5.75;;;16.60;99.90;;;;;;5053621;28;20376;-27
2023/08/18 05:52:44;;;;;;;10.38;5.38;;;16.70;99.90;;;;;;5053973;28;20047;-26
2023/08/18 05:55:09;;;;;;;5.28;4.63;;;16.70;99.90;;;;;;5052711;28;20045;-26
2023/08/18 05:57:37;;;;;;;7.40;5.05;;;16.70;99.90;;;;;;5053826;28;20052;-27
2023/08/18 06:00:05;;;;;;;7.93;5.10;;;16.80;99.90;;;;;;5053532;28;20056;-27
2023/08/18 06:02:31;;;;;;;7.97;4.70;;;16.80;99.90;;;;;;5052634;28;20098;-26
2023/08/18 06:04:58;;;;;;;10.98;5.30;;;16.90;99.90;;;;;;5052789;28;20045;-26
2023/08/18 06:07:23;;;;;;;9.45;4.88;;;16.90;99.90;;;;;;5053684;28;20060;-26
2023/08/18 06:09:49;;;;;;;7.85;5.05;;;16.90;99.90;;;;;;5052907;28;20049;-26
2023/08/18 06:12:15;;;;;;;9.63;5.20;;;17.00;99.90;;;;;;5053672;28;20128;-26
2023/08/18 06:14:40;;;;;;;9.15;5.28;;;17.00;99.90;;;;;;5052601;28;20558;-26
2023/08/18 06:17:06;;;;;;;11.65;5.88;;;17.00;99.90;;;;;;5053658;28;20044;-26
2023/08/18 06:19:32;;;;;;;9.60;4.90;;;17.10;99.90;;;;;;5053654;28;20052;-27
2023/08/18 06:21:58;;;;;;;13.65;5.95;;;17.10;99.90;;;;;;5064142;28;20045;-27
2023/08/18 06:24:24;;;;;;;8.77;5.28;;;17.20;99.90;;;;;;5073648;28;20040;-26
2023/08/18 06:26:49;;;;;;;12.10;8.30;;;17.20;99.90;;;;;;5074422;28;20044;-26
2023/08/18 06:29:15;;;;;;;10.48;5.78;;;17.20;99.90;;;;;;5055944;28;20378;-27
2023/08/18 06:31:41;;;;;;;10.90;4.90;;;17.30;99.90;;;;;;5063915;28;20037;-26
2023/08/18 06:34:07;;;;;;;12.30;5.47;;;17.40;99.90;;;;;;5061171;28;20044;-26
2023/08/18 06:36:33;;;;;;;10.10;5.65;;;17.40;99.90;;;;;;5067848;28;20049;-26
2023/08/18 06:38:59;;;;;;;12.27;5.22;;;17.40;99.90;;;;;;5053269;28;20049;-27
2023/08/18 06:41:24;;;;;;;9.43;4.75;;;17.50;99.90;;;;;;5052166;28;20128;-26
2023/08/18 06:43:50;;;;;;;7.82;4.35;;;17.50;99.90;;;;;;5054541;28;20045;-27
2023/08/18 06:46:16;;;;;;;10.05;4.90;;;17.50;99.90;;;;;;5073442;28;20052;-26
2023/08/18 06:48:42;;;;;;;10.63;4.85;;;17.60;99.90;;;;;;5067909;28;20384;-26
2023/08/18 06:51:07;;;;;;;11.80;4.95;;;17.60;99.90;;;;;;5051974;28;20052;-26
2023/08/18 06:53:33;;;;;;;9.82;4.95;;;17.70;99.90;;;;;;5052014;28;20049;-26
2023/08/18 06:55:59;;;;;;;7.38;4.93;;;17.70;99.90;;;;;;5053166;28;20483;-27
2023/08/18 06:58:25;;;;;;;10.13;4.82;;;17.80;99.90;;;;;;5053665;28;20041;-26
2023/08/18 07:00:52;;;;;;;9.45;4.60;;;17.90;99.90;;;;;;5053822;28;20057;-26
2023/08/18 07:03:18;;;;;;;8.48;4.78;;;18.10;99.90;;;;;;5052494;28;20049;-27
2023/08/18 07:05:43;;;;;;;10.55;5.13;;;18.30;99.90;;;;;;5052215;28;20048;-26
2023/08/18 07:08:10;;;;;;;11.38;4.57;;;18.40;99.90;;;;;;5053685;28;20076;-28
2023/08/18 07:10:36;;;;;;;7.90;4.38;;;18.50;99.90;;;;;;5052912;28;20087;-27
2023/08/18 07:13:03;;;;;;;8.35;4.82;;;18.50;99.90;;;;;;5053678;28;20087;-26
2023/08/18 07:15:28;;;;;;;10.45;3.90;;;18.60;99.90;;;;;;5053385;28;20053;-26
2023/08/18 07:17:54;;;;;;;7.68;4.60;;;18.60;99.90;;;;;;5039333;28;20532;-27
2023/08/18 07:20:20;;;;;;;5.68;4.03;;;18.70;99.90;;;;;;5060257;28;20053;-27
2023/08/18 07:22:46;;;;;;;8.20;4.18;;;18.70;99.90;;;;;;5056860;28;20055;-26
2023/08/18 07:25:12;;;;;;;8.20;5.10;;;18.70;99.90;;;;;;5056781;28;20127;-27
2023/08/18 07:27:38;;;;;;;7.35;4.82;;;18.70;99.90;;;;;;5055577;28;20141;-27
2023/08/18 07:30:04;;;;;;;9.73;4.60;;;18.60;99.90;;;;;;5056926;28;20076;-27
2023/08/18 07:32:30;;;;;;;10.18;4.50;;;18.50;99.90;;;;;;5056605;28;20053;-27
2023/08/18 07:34:56;;;;;;;9.82;4.68;;;18.50;99.90;;;;;;5055589;28;20037;-26
2023/08/18 07:37:22;;;;;;;10.55;4.88;;;18.50;99.90;;;;;;5055205;28;20087;-27
2023/08/18 07:39:47;;;;;;;9.40;4.88;;;18.50;99.90;;;;;;5056367;28;20095;-26
2023/08/18 07:42:13;;;;;;;10.25;5.75;;;18.50;99.90;;;;;;5062844;28;20052;-26
2023/08/18 07:44:39;;;;;;;10.93;6.43;;;18.50;99.90;;;;;;5076364;28;20048;-27
2023/08/18 07:47:05;;;;;;;7.72;5.60;;;18.50;99.90;;;;;;5076336;28;20041;-26
2023/08/18 07:49:31;;;;;;;9.68;5.75;;;18.40;99.90;;;;;;5076289;28;20136;-27
2023/08/18 07:51:56;;;;;;;11.95;5.93;;;18.50;99.90;;;;;;5072525;28;20120;-27
2023/08/18 07:54:23;;;;;;;11.27;6.28;;;18.50;99.90;;;;;;5074998;28;20041;-26
2023/08/18 07:56:49;;;;;;;12.27;5.40;;;18.50;99.90;;;;;;5070000;28;20399;-27
2023/08/18 07:59:15;;;;;;;13.82;6.85;;;18.40;99.90;;;;;;5065637;28;20140;-26
2023/08/18 08:01:41;;;;;;;13.15;8.73;;;18.40;99.90;;;;;;5057165;28;20127;-26
2023/08/18 08:04:06;;;;;;;11.95;6.68;;;18.40;99.90;;;;;;5054659;28;20041;-26
2023/08/18 08:06:32;;;;;;;11.85;6.90;;;18.40;99.90;;;;;;5055978;28;20616;-26
2023/08/18 08:08:58;;;;;;;16.58;8.27;;;18.50;99.90;;;;;;5055653;28;20128;-26
2023/08/18 08:11:24;;;;;;;18.50;8.13;;;18.50;99.90;;;;;;5056348;28;20037;-27
2023/08/18 08:13:49;;;;;;;11.75;6.55;;;18.50;99.90;;;;;;5070995;28;20375;-27
2023/08/18 08:16:15;;;;;;;9.70;5.97;;;18.60;99.90;;;;;;5075489;28;20056;-26
2023/08/18 08:18:41;;;;;;;8.57;5.63;;;18.60;99.90;;;;;;5076294;28;20417;-26
2023/08/18 08:21:07;;;;;;;11.52;6.43;;;18.60;99.90;;;;;;5075006;28;20567;-27
2023/08/18 08:23:32;;;;;;;13.52;7.18;;;18.60;99.90;;;;;;5074791;28;20055;-26
2023/08/18 08:25:58;;;;;;;11.75;6.43;;;18.60;99.90;;;;;;5069318;28;20462;-26
2023/08/18 08:28:24;;;;;;;10.65;7.10;;;18.70;99.90;;;;;;5054424;28;20055;-26
2023/08/18 08:30:50;;;;;;;9.20;6.40;;;18.80;99.90;;;;;;5052419;28;20120;-26
2023/08/18 08:33:15;;;;;;;14.23;8.05;;;19.00;99.90;;;;;;5066449;28;20498;-26
2023/08/18 08:35:41;;;;;;;10.93;6.93;;;19.20;99.90;;;;;;5056099;28;20079;-26
2023/08/18 08:38:07;;;;;;;13.10;7.15;;;19.30;99.90;;;;;;5055202;28;20106;-27
2023/08/18 08:40:33;;;;;;;14.52;7.43;;;19.40;99.90;;;;;;5054005;28;20503;-26
2023/08/18 08:42:59;;;;;;;15.57;8.02;;;19.60;99.90;;;;;;5055149;28;20045;-26
2023/08/18 08:45:26;;;;;;;11.85;6.57;;;19.60;98.30;;;;;;5059392;28;20119;-27
2023/08/18 08:47:55;;;;;;;12.15;6.40;;;19.70;84.00;;;;;;5075045;28;20101;-27
2023/08/18 08:50:25;;;;;;;13.38;6.22;;;19.90;67.90;;;;;;5073732;28;20051;-27
2023/08/18 08:52:53;;;;;;;12.52;5.80;;;20.10;77.00;;;;;;5074957;28;20048;-28
2023/08/18 08:55:24;;;;;;;12.65;5.90;;;20.40;33.20;;;;;;5072921;28;20552;-25
2023/08/18 08:57:50;;;;;;;12.25;6.20;;;20.50;1.00;;;;;;5075303;28;20061;-27
2023/08/18 09:00:16;;;;;;;13.48;6.00;;;20.60;1.00;;;;;;5074846;28;20053;-27
2023/08/18 09:02:45;;;;;;;16.85;6.35;;;20.80;1.00;;;;;;5073650;28;20060;-26
2023/08/18 09:05:11;;;;;;;14.55;6.30;;;20.90;1.00;;;;;;5075071;28;20045;-27
2023/08/18 09:07:37;;;;;;;11.85;6.15;;;20.90;1.00;;;;;;5072921;28;20555;-26
2023/08/18 09:10:04;;;;;;;13.50;5.78;;;20.90;99.90;;;;;;5075486;28;20044;-27
2023/08/18 09:12:29;;;;;;;16.08;5.35;;;20.80;99.90;;;;;;5073415;28;20070;-27
2023/08/18 09:14:55;;;;;;;10.57;5.13;;;20.90;99.90;;;;;;5074351;28;20044;-27
2023/08/18 09:17:22;;;;;;;12.57;5.18;;;21.10;99.90;;;;;;5064477;28;20059;-26
2023/08/18 09:19:49;;;;;;;11.90;5.47;;;21.10;99.90;;;;;;5060597;28;20377;-26
2023/08/18 09:22:21;;;;;;;9.10;5.15;;;21.10;99.90;;;;;;5062209;28;20113;-27
2023/08/18 09:24:51;;;;;;;7.78;4.50;;;21.10;99.90;;;;;;5056587;28;20083;-27
2023/08/18 09:27:20;;;;;;;7.30;4.22;;;21.10;99.90;;;;;;5054743;28;20049;-27
2023/08/18 09:29:45;;;;;;;7.15;4.50;;;21.20;99.90;;;;;;5054909;28;20049;-27
2023/08/18 09:32:11;;;;;;;10.65;4.63;;;21.30;99.90;;;;;;5054282;28;20383;-26
2023/08/18 09:34:38;;;;;;;8.10;4.50;;;21.40;99.90;;;;;;5055536;28;20048;-27
2023/08/18 09:37:05;;;;;;;8.35;4.13;;;21.40;99.90;;;;;;5054761;28;20045;-27
2023/08/18 09:39:30;;;;;;;12.00;4.20;;;21.50;99.90;;;;;;5053554;28;20045;-27
2023/08/18 09:41:56;;;;;;;9.57;4.00;;;21.60;99.90;;;;;;5053947;28;20052;-27
2023/08/18 09:44:22;;;;;;;6.97;3.95;;;21.60;99.90;;;;;;5053912;28;20056;-27
2023/08/18 09:46:55;;;;;;;9.00;4.60;;;21.60;99.90;;;;;;5042311;28;20122;-24
2023/08/18 09:49:22;;;;;;;11.18;4.68;;;21.80;99.90;;;;;;5054645;28;20047;-27
2023/08/18 09:51:58;;;;;;;9.20;3.55;;;21.80;99.90;;;;;;5053943;28;20103;-27
2023/08/18 09:54:28;;;;;;;13.05;4.55;;;22.00;99.90;;;;;;5054659;28;20390;-26
2023/08/18 09:57:02;;;;;;;6.78;4.65;;;22.10;99.90;;;;;;5053968;28;20045;-27
2023/08/18 09:59:34;;;;;;;11.50;3.88;;;22.10;92.20;;;;;;5070516;28;20064;-27
2023/08/18 10:02:03;;;;;;;9.32;3.40;;;22.10;88.60;;;;;;5073929;28;20091;-27
2023/08/18 10:04:36;;;;;;;9.45;4.13;;;22.20;77.00;;;;;;5073833;28;20052;-26
2023/08/18 10:07:03;;;;;;;7.80;4.18;;;22.30;34.20;;;;;;5073819;28;20486;-27
2023/08/18 10:09:33;;;;;;;7.68;4.20;;;22.30;1.00;;;;;;5070793;28;20083;-26
2023/08/18 10:12:02;;;;;;;7.00;4.00;;;22.40;1.00;;;;;;5073661;28;20044;-27
2023/08/18 10:14:31;;;;;;;12.63;4.68;;;22.50;1.00;;;;;;5073694;28;20056;-26
2023/08/18 10:16:58;;;;;;;10.85;4.32;;;22.60;1.00;;;;;;5072741;28;20055;-27
2023/08/18 10:19:47;;;;;;;8.70;4.45;;;22.50;1.00;;;;;;5069025;28;20489;-26
2023/08/18 10:22:15;;;;;;;11.85;4.68;;;22.60;1.00;;;;;;5073648;28;20444;-27
2023/08/18 10:24:43;;;;;;;10.57;5.30;;;22.70;1.00;;;;;;5073901;28;20049;-27
2023/08/18 10:27:12;;;;;;;10.23;5.53;;;22.90;1.00;;;;;;5073572;28;20052;-27
2023/08/18 10:29:37;;;;;;;9.20;5.82;;;23.10;1.00;;;;;;5068357;28;20406;-26
2023/08/18 10:32:08;;;;;;;10.30;4.80;;;23.20;1.00;;;;;;5066277;28;20053;-28
2023/08/18 10:34:35;;;;;;;7.93;4.68;;;23.20;99.90;;;;;;5059055;28;20077;-27
2023/08/18 10:37:03;;;;;;;7.95;4.20;;;23.10;99.90;;;;;;5052716;28;20056;-28
2023/08/18 10:39:36;;;;;;;9.68;4.35;;;23.10;1.00;;;;;;5052847;28;20045;-27
2023/08/18 10:42:13;;;;;;;7.57;4.10;;;23.30;1.00;;;;;;5057384;28;20120;-26
2023/08/18 10:45:00;;;;;;;12.43;5.60;;;23.60;99.90;;;;;;5052929;28;20371;-27
2023/08/18 10:47:34;;;;;;;9.25;5.35;;;23.90;99.90;;;;;;5059814;28;20036;-27
2023/08/18 10:50:04;;;;;;;6.40;4.50;;;23.90;1.00;;;;;;5060034;28;20037;-27
2023/08/18 10:52:30;;;;;;;7.07;4.53;;;24.20;99.90;;;;;;5062916;28;20048;-27
2023/08/18 10:54:57;;;;;;;7.90;4.10;;;24.40;83.30;;;;;;5072187;28;20049;-26
2023/08/18 10:57:23;;;;;;;5.88;4.80;;;24.50;1.00;;;;;;5062515;28;20422;-28
2023/08/18 10:59:50;;;;;;;6.43;4.43;;;24.30;1.00;;;;;;5077323;28;20478;-27
2023/08/18 11:02:17;;;;;;;7.32;4.20;;;24.30;99.90;;;;;;5077188;28;20056;-27
2023/08/18 11:04:42;;;;;;;6.70;4.13;;;24.40;1.00;;;;;;5076249;28;20051;-27
2023/08/18 11:07:08;;;;;;;8.00;4.22;;;24.30;1.00;;;;;;5068893;28;20045;-27
2023/08/18 11:09:36;;;;;;;9.35;4.28;;;24.30;1.00;;;;;;5060300;28;20457;-27
2023/08/18 11:12:03;;;;;;;10.25;4.60;;;24.30;1.00;;;;;;5055753;28;20475;-28
2023/08/18 11:14:29;;;;;;;6.40;3.80;;;24.20;1.00;;;;;;5055526;28;20045;-27
2023/08/18 11:16:55;;;;;;;7.45;3.90;;;24.20;1.00;;;;;;5055643;28;20123;-25
2023/08/18 11:19:21;;;;;;;8.75;4.45;;;24.30;1.00;;;;;;5072221;28;20483;-27
2023/08/18 11:21:47;;;;;;;8.52;4.72;;;24.40;1.00;;;;;;5063517;28;20124;-27
2023/08/18 11:24:13;;;;;;;6.60;4.15;;;24.30;1.00;;;;;;5055631;28;20049;-27
2023/08/18 11:26:39;;;;;;;12.07;5.80;;;24.40;1.00;;;;;;5071092;28;20048;-27
2023/08/18 11:29:08;;;;;;;5.28;4.25;;;24.30;1.00;;;;;;5056826;28;20045;-27
2023/08/18 11:31:34;;;;;;;5.88;4.45;;;24.40;1.00;;;;;;5056605;28;20111;-27
2023/08/18 11:34:00;;;;;;;8.82;4.53;;;24.50;1.00;;;;;;5063348;28;20041;-28
2023/08/18 11:36:32;;;;;;;5.18;4.20;;;24.60;1.00;;;;;;5068378;28;20478;-27
2023/08/18 11:39:08;;;;;;;8.05;5.45;;;24.80;99.90;;;;;;5065507;28;20056;-27
2023/08/18 11:41:44;;;;;;;8.55;4.43;;;24.90;99.90;;;;;;5071402;28;20040;-28
2023/08/18 11:44:11;;;;;;;5.88;4.63;;;25.30;62.30;;;;;;5076390;28;20520;-25
2023/08/18 11:46:38;;;;;;;9.60;5.45;;;25.50;99.90;;;;;;5075940;28;20052;-28
2023/08/18 11:49:18;;;;;;;6.43;4.97;;;25.70;99.90;;;;;;5051421;28;20052;-28
2023/08/18 11:51:57;;;;;;;6.25;4.38;;;26.70;1.00;;;;;;5064284;28;20077;-28
2023/08/18 11:54:30;;;;;;;7.65;4.20;;;27.20;1.00;;;;;;5076474;28;20474;-28
2023/08/18 11:56:57;;;;;;;6.18;4.93;;;27.20;1.00;;;;;;5060160;28;20529;-28
2023/08/18 11:59:23;;;;;;;5.35;4.43;;;26.80;1.00;;;;;;5074261;28;20110;-28
2023/08/18 12:01:56;;;;;;;6.43;5.03;;;26.70;99.90;;;;;;5066570;28;20103;-28
2023/08/18 12:04:29;;;;;;;5.72;3.63;;;26.50;99.90;;;;;;5062315;28;20580;-27
2023/08/18 12:06:55;;;;;;;6.60;4.10;;;26.60;1.00;;;;;;5068802;28;20052;-28
2023/08/18 12:09:22;;;;;;;7.20;4.85;;;26.50;1.00;;;;;;5075948;28;20097;-28
2023/08/18 12:11:48;;;;;;;7.43;5.00;;;26.90;99.90;;;;;;5074672;28;20052;-28
2023/08/18 12:14:15;;;;;;;7.10;4.57;;;27.10;99.90;;;;;;5072491;28;20548;-28
2023/08/18 12:16:41;;;;;;;5.53;4.70;;;27.50;96.80;;;;;;5064896;28;20163;-28
2023/08/18 12:19:07;;;;;;;6.97;4.28;;;27.80;1.00;;;;;;5055759;28;20056;-28
2023/08/18 12:21:36;;;;;;;8.20;4.90;;;27.60;1.00;;;;;;5054558;28;20050;-28
2023/08/18 12:24:03;;;;;;;8.70;5.05;;;27.40;1.00;;;;;;5055653;28;20123;-28
2023/08/18 12:26:30;;;;;;;6.20;4.68;;;27.00;99.90;;;;;;5055629;28;20045;-27
2023/08/18 12:28:56;;;;;;;6.55;4.90;;;26.90;99.90;;;;;;5063116;28;20041;-28
2023/08/18 12:31:24;;;;;;;5.82;4.28;;;26.70;99.90;;;;;;5074428;28;20068;-28
2023/08/18 12:33:53;;;;;;;6.80;4.53;;;26.60;99.90;;;;;;5063215;28;20047;-27
2023/08/18 12:36:19;;;;;;;8.48;4.65;;;26.50;99.90;;;;;;5059772;28;20053;-24
2023/08/18 12:38:48;;;;;;;6.88;4.65;;;26.60;99.90;;;;;;5058352;28;20055;-28
2023/08/18 12:41:14;;;;;;;6.82;4.72;;;26.70;99.90;;;;;;5069800;28;20505;-28
2023/08/18 12:43:43;;;;;;;7.43;4.80;;;26.60;99.90;;;;;;5075343;28;20095;-28
2023/08/18 12:46:09;;;;;;;6.82;5.03;;;26.90;99.90;;;;;;5074051;28;20040;-28